Time;durP1;ratioP1;P1;durP2;ratioP2;P2;SDS_P1;SDS_P2;PMS_P1;PMS_P2;Temp;Humidity;BMP_temperature;BMP_pressure;BME280_temperature;BME280_humidity;BME280_pressure;Samples;Min_cycle;Max_cycle;Signal;HPM_P1;HPM_P2
2022/02/07 00:01:42;;;;;;;12.80;7.82;;;;;;;6.52;98.80;98981.16;5095135;28;20074;-78
2022/02/07 00:04:16;;;;;;;13.88;7.65;;;;;;;6.55;98.30;98980.09;5095089;28;20047;-78
2022/02/07 00:06:45;;;;;;;12.68;7.40;;;;;;;6.48;98.28;98978.81;5095430;28;20044;-78
2022/02/07 00:09:13;;;;;;;11.40;7.38;;;;;;;6.42;99.06;98973.91;5094853;28;20126;-79
2022/02/07 00:11:41;;;;;;;11.00;7.30;;;;;;;6.43;99.27;98976.44;5095106;28;20098;-79
2022/02/07 00:14:11;;;;;;;13.20;7.60;;;;;;;6.51;97.86;98968.88;5094685;28;20097;-79
2022/02/07 00:16:42;;;;;;;13.05;7.63;;;;;;;6.54;98.19;98970.47;5094897;28;20067;-75
2022/02/07 00:19:17;;;;;;;10.82;6.85;;;;;;;6.48;98.01;98977.03;5094695;28;20048;-75
2022/02/07 00:21:47;;;;;;;13.02;7.38;;;;;;;6.64;97.05;98979.53;5094504;28;20054;-75
2022/02/07 00:24:15;;;;;;;12.98;6.60;;;;;;;6.67;96.68;98982.00;5094427;28;20044;-75
2022/02/07 00:26:44;;;;;;;14.70;8.00;;;;;;;6.64;96.66;98989.28;5094948;28;20067;-75
2022/02/07 00:29:12;;;;;;;13.15;6.85;;;;;;;6.60;96.40;98989.47;5094501;28;20051;-74
2022/02/07 00:31:42;;;;;;;12.32;7.55;;;;;;;6.64;95.93;98987.47;5094526;28;20467;-74
2022/02/07 00:34:11;;;;;;;12.98;7.55;;;;;;;6.63;95.95;98988.41;5094168;28;20044;-74
2022/02/07 00:36:40;;;;;;;12.13;6.88;;;;;;;6.67;95.59;98989.94;5094748;28;20385;-74
2022/02/07 00:39:14;;;;;;;12.27;7.43;;;;;;;6.69;95.12;98976.59;5094404;28;20490;-73
2022/02/07 00:41:47;;;;;;;13.70;7.50;;;;;;;6.59;95.55;98955.97;5094753;28;20079;-73
2022/02/07 00:44:18;;;;;;;11.68;7.68;;;;;;;6.54;96.02;98946.63;5094390;28;20048;-73
2022/02/07 00:46:50;;;;;;;14.23;7.80;;;;;;;6.60;95.65;98941.78;5094668;28;20040;-73
2022/02/07 00:49:20;;;;;;;13.18;7.78;;;;;;;6.65;95.25;98944.13;5094213;28;20072;-73
2022/02/07 00:51:48;;;;;;;12.52;7.68;;;;;;;6.57;95.28;98941.16;5093245;28;20413;-73
2022/02/07 00:54:17;;;;;;;12.48;8.13;;;;;;;6.55;95.64;98938.56;5094058;28;20044;-73
2022/02/07 00:56:45;;;;;;;13.00;7.63;;;;;;;6.63;94.43;98932.78;5094022;28;20518;-73
2022/02/07 00:59:14;;;;;;;15.02;7.97;;;;;;;6.66;94.18;98927.31;5093967;28;20496;-73
2022/02/07 01:01:42;;;;;;;14.75;8.20;;;;;;;6.61;93.99;98916.13;5094325;28;20067;-73
2022/02/07 01:04:11;;;;;;;12.93;7.45;;;;;;;6.76;92.49;98901.91;5093880;28;20500;-73
2022/02/07 01:06:40;;;;;;;14.63;8.18;;;;;;;6.81;91.71;98857.38;5094229;28;20072;-73
2022/02/07 01:09:14;;;;;;;15.80;8.50;;;;;;;6.76;92.23;98869.25;5093768;28;20044;-73
2022/02/07 01:12:00;;;;;;;12.57;8.00;;;;;;;6.71;93.80;98868.69;5094010;28;20044;-74
2022/02/07 01:14:41;;;;;;;13.77;7.55;;;;;;;6.68;94.52;98880.34;5094141;28;20115;-75
2022/02/07 01:20:13;;;;;;;13.48;7.93;;;;;;;6.70;95.59;98883.75;5081548;28;20401;-75
2022/02/07 01:23:09;;;;;;;15.20;8.27;;;;;;;6.66;95.88;98889.31;5093935;28;20048;-75
2022/02/07 01:48:12;;;;;;;15.85;9.07;;;;;;;6.38;100.00;98817.00;5072706;28;20057;-73
2022/02/07 01:50:58;;;;;;;15.38;8.40;;;;;;;6.39;99.95;98812.53;5091879;28;20501;-73
2022/02/07 01:53:38;;;;;;;14.55;9.35;;;;;;;6.36;99.41;98800.31;5092589;28;20097;-73
2022/02/07 01:56:09;;;;;;;14.48;9.15;;;;;;;6.31;99.82;98797.16;5093045;28;20044;-74
2022/02/07 01:58:37;;;;;;;16.58;9.55;;;;;;;6.22;100.00;98803.03;5093168;28;20040;-73
2022/02/07 02:01:06;;;;;;;16.63;9.27;;;;;;;6.19;100.00;98796.16;5093031;28;20040;-76
2022/02/07 02:03:35;;;;;;;17.00;9.32;;;;;;;6.25;100.00;98790.44;5092955;28;20043;-74
2022/02/07 02:06:07;;;;;;;14.98;9.10;;;;;;;6.19;100.00;98780.28;5093217;28;20094;-74
2022/02/07 02:08:36;;;;;;;16.67;9.48;;;;;;;6.07;100.00;98783.69;5093460;28;20095;-75
2022/02/07 02:11:05;;;;;;;15.90;9.48;;;;;;;6.08;100.00;98780.13;5093178;28;20040;-75
2022/02/07 02:13:50;;;;;;;15.25;9.07;;;;;;;6.00;100.00;98777.13;5093191;28;20430;-75
2022/02/07 02:16:24;;;;;;;18.58;9.77;;;;;;;5.96;100.00;98775.59;5092843;28;20040;-75
2022/02/07 02:22:26;;;;;;;15.55;9.40;;;;;;;5.98;100.00;98774.59;5092589;28;20109;-74
2022/02/07 02:33:50;;;;;;;18.20;9.65;;;;;;;6.07;100.00;98766.97;5093030;28;20043;-74
2022/02/07 02:36:32;;;;;;;15.95;9.15;;;;;;;6.05;100.00;98768.88;5092525;28;20050;-75
2022/02/07 02:47:23;;;;;;;16.80;9.77;;;;;;;6.18;100.00;98754.75;5096334;28;20043;-75
2022/02/07 02:50:03;;;;;;;16.45;9.88;;;;;;;6.14;100.00;98742.66;5096809;28;20048;-75
2022/02/07 02:52:32;;;;;;;18.40;9.65;;;;;;;6.13;100.00;98735.66;5096507;28;20409;-75
2022/02/07 02:55:00;;;;;;;17.70;9.93;;;;;;;6.17;100.00;98747.72;5096976;28;20139;-75
2022/02/07 02:57:29;;;;;;;18.33;9.65;;;;;;;6.09;100.00;98734.19;5096406;28;20123;-75
2022/02/07 02:59:58;;;;;;;17.90;10.38;;;;;;;6.06;100.00;98734.34;5096842;28;20071;-75
2022/02/07 03:02:26;;;;;;;17.10;10.00;;;;;;;6.14;100.00;98726.75;5096064;28;20127;-73
2022/02/07 03:04:54;;;;;;;14.88;9.48;;;;;;;6.15;100.00;98712.56;5096522;28;20126;-73
2022/02/07 03:07:25;;;;;;;17.60;10.38;;;;;;;6.13;100.00;98713.63;5095810;28;20044;-73
2022/02/07 03:09:58;;;;;;;18.10;9.80;;;;;;;6.10;100.00;98712.03;5096642;28;20469;-73
2022/02/07 03:12:27;;;;;;;17.42;10.07;;;;;;;6.10;100.00;98701.47;5096121;28;20071;-72
2022/02/07 03:16:35;;;;;;;16.30;10.20;;;;;;;6.17;100.00;98692.13;5096016;28;20074;-72
2022/02/07 03:17:44;;;;;;;16.30;9.25;;;;;;;6.29;100.00;98688.69;5096340;28;20500;-72
2022/02/07 03:20:15;;;;;;;17.25;9.73;;;;;;;6.34;100.00;98684.88;5095877;28;20048;-73
2022/02/07 03:22:43;;;;;;;18.00;10.65;;;;;;;6.27;100.00;98680.00;5096245;28;20050;-72
2022/02/07 03:25:11;;;;;;;18.27;10.32;;;;;;;6.38;100.00;98679.28;5095876;28;20044;-74
2022/02/07 03:27:40;;;;;;;18.80;10.68;;;;;;;6.49;99.66;98683.84;5096475;28;20040;-71
2022/02/07 03:30:12;;;;;;;18.70;11.05;;;;;;;6.45;99.77;98663.78;5096114;28;20085;-74
2022/02/07 03:32:40;;;;;;;17.92;10.35;;;;;;;6.41;100.00;98659.66;5096300;28;20135;-73
2022/02/07 03:35:09;;;;;;;18.48;10.98;;;;;;;6.53;99.10;98683.50;5095937;28;20047;-73
2022/02/07 03:37:38;;;;;;;18.38;10.32;;;;;;;6.47;99.77;98683.09;5096040;28;20040;-73
2022/02/07 03:40:08;;;;;;;19.95;11.38;;;;;;;6.35;100.00;98684.75;5095538;28;20051;-73
2022/02/07 03:42:37;;;;;;;20.23;11.02;;;;;;;6.39;100.00;98682.75;5096125;28;20036;-73
2022/02/07 03:45:06;;;;;;;20.40;11.85;;;;;;;6.36;100.00;98683.81;5095898;28;20040;-74
2022/02/07 03:47:38;;;;;;;17.63;10.70;;;;;;;6.32;100.00;98679.69;5095420;28;20093;-74
2022/02/07 03:50:07;;;;;;;18.02;10.90;;;;;;;6.29;100.00;98667.50;5095839;28;20051;-74
2022/02/07 03:52:38;;;;;;;16.80;10.32;;;;;;;6.36;100.00;98649.38;5095758;28;20040;-73
2022/02/07 03:55:07;;;;;;;17.98;11.00;;;;;;;6.26;100.00;98625.31;5095394;28;20122;-72
2022/02/07 03:57:35;;;;;;;18.02;10.05;;;;;;;6.37;100.00;98636.97;5094166;28;20082;-73
2022/02/07 04:00:08;;;;;;;19.67;11.18;;;;;;;6.30;100.00;98642.72;5095190;28;20037;-73
2022/02/07 04:02:42;;;;;;;16.67;10.20;;;;;;;6.26;100.00;98635.06;5094884;28;20503;-73
2022/02/07 04:05:36;;;;;;;21.55;10.80;;;;;;;6.24;100.00;98616.63;5095167;28;20043;-73
2022/02/07 04:08:07;;;;;;;20.42;10.75;;;;;;;6.20;100.00;98609.88;5095089;28;20048;-72
2022/02/07 04:10:43;;;;;;;18.33;11.32;;;;;;;6.12;100.00;98643.97;5093992;28;20389;-72
2022/02/07 04:13:12;;;;;;;17.60;10.63;;;;;;;6.19;100.00;98655.84;5095348;28;20085;-72
2022/02/07 04:15:41;;;;;;;17.92;10.63;;;;;;;6.22;100.00;98660.06;5095261;28;20040;-73
2022/02/07 04:18:14;;;;;;;17.02;10.07;;;;;;;6.27;100.00;98668.53;5095096;28;20036;-73
2022/02/07 04:20:45;;;;;;;16.10;10.25;;;;;;;6.27;100.00;98663.25;5094869;28;20127;-74
2022/02/07 04:23:15;;;;;;;17.35;10.50;;;;;;;6.28;100.00;98665.81;5094976;28;20435;-73
2022/02/07 04:25:44;;;;;;;21.40;10.55;;;;;;;6.34;100.00;98664.53;5094787;28;20032;-74
2022/02/07 04:28:13;;;;;;;18.55;10.95;;;;;;;6.43;100.00;98663.06;5094926;28;20126;-72
2022/02/07 04:30:41;;;;;;;17.17;10.98;;;;;;;6.36;100.00;98672.38;5094949;28;20048;-73
2022/02/07 04:33:11;;;;;;;19.65;10.63;;;;;;;6.50;100.00;98667.00;5094866;28;20496;-74
2022/02/07 04:35:39;;;;;;;20.38;11.32;;;;;;;6.45;100.00;98666.44;5094193;28;20044;-73
2022/02/07 04:38:07;;;;;;;19.88;10.70;;;;;;;6.40;100.00;98657.97;5094631;28;20036;-73
2022/02/07 04:40:36;;;;;;;20.73;11.43;;;;;;;6.40;100.00;98657.97;5094273;28;20076;-74
2022/02/07 04:43:06;;;;;;;17.80;10.20;;;;;;;6.40;100.00;98655.31;5094326;28;20553;-74
2022/02/07 04:45:48;;;;;;;19.50;10.73;;;;;;;6.38;100.00;98641.34;5093903;28;20044;-74
2022/02/07 04:51:26;;;;;;;;;;;;;;;6.44;100.00;98651.50;5082411;28;20059;-74
2022/02/07 04:54:11;;;;;;;17.83;10.85;;;;;;;6.35;100.00;98650.31;5094239;28;19920;-75
2022/02/07 04:59:36;;;;;;;21.05;11.13;;;;;;;6.39;100.00;98658.94;5093881;28;20039;-74
2022/02/07 05:02:10;;;;;;;19.45;10.90;;;;;;;6.39;100.00;98666.88;5094382;28;20067;-74
2022/02/07 05:04:41;;;;;;;16.42;8.70;;;;;;;6.61;100.00;98675.03;5093737;28;20477;-74
2022/02/07 05:15:38;;;;;;;21.30;11.60;;;;;;;6.67;100.00;98681.72;5091440;28;20117;-73
2022/02/07 05:18:07;;;;;;;20.13;12.02;;;;;;;6.62;100.00;98684.69;5093515;28;20040;-74
2022/02/07 05:20:39;;;;;;;19.13;11.98;;;;;;;6.58;100.00;98677.91;5093104;28;20089;-77
2022/02/07 05:23:07;;;;;;;22.40;11.45;;;;;;;6.64;100.00;98693.38;5093992;28;20119;-77
2022/02/07 05:25:35;;;;;;;18.48;11.13;;;;;;;6.58;100.00;98684.06;5093469;28;20040;-77
2022/02/07 05:28:04;;;;;;;22.05;11.80;;;;;;;6.72;100.00;98698.16;5093765;28;20046;-79
2022/02/07 05:30:32;;;;;;;20.38;11.75;;;;;;;6.76;100.00;98700.50;5093404;28;20126;-79
2022/02/07 05:33:01;;;;;;;22.40;12.00;;;;;;;6.63;100.00;98699.63;5093734;28;20047;-78
2022/02/07 05:35:29;;;;;;;24.52;11.07;;;;;;;6.75;100.00;98690.81;5093366;28;20393;-77
2022/02/07 05:38:00;;;;;;;18.52;10.68;;;;;;;6.86;100.00;98693.59;5093646;28;20093;-77
2022/02/07 05:40:35;;;;;;;17.73;9.48;;;;;;;6.96;100.00;98700.91;5093091;28;20531;-76
2022/02/07 05:43:04;;;;;;;15.43;7.95;;;;;;;6.83;100.00;98680.53;5093719;28;20485;-76
2022/02/07 05:45:32;;;;;;;18.52;9.38;;;;;;;6.84;100.00;98690.19;5093066;28;20138;-76
2022/02/07 05:48:01;;;;;;;17.02;9.25;;;;;;;6.80;100.00;98695.81;5093123;28;20093;-76
2022/02/07 05:50:29;;;;;;;16.00;8.05;;;;;;;6.69;100.00;98691.25;5093200;28;20043;-76
2022/02/07 05:52:59;;;;;;;16.23;8.23;;;;;;;6.73;100.00;98689.25;5093105;28;20485;-77
2022/02/07 05:55:32;;;;;;;14.13;6.78;;;;;;;6.75;100.00;98704.06;5093282;28;20495;-76
2022/02/07 05:58:01;;;;;;;15.05;7.65;;;;;;;6.75;100.00;98705.88;5093379;28;20135;-76
2022/02/07 06:00:32;;;;;;;15.30;8.30;;;;;;;6.67;100.00;98709.06;5092893;28;20538;-76
2022/02/07 06:03:01;;;;;;;15.98;8.02;;;;;;;6.70;100.00;98694.75;5093338;28;20068;-75
2022/02/07 06:05:31;;;;;;;17.85;8.82;;;;;;;6.64;100.00;98709.25;5092917;28;20075;-76
2022/02/07 06:08:00;;;;;;;15.40;7.22;;;;;;;6.61;100.00;98704.19;5092721;28;20055;-74
2022/02/07 06:10:28;;;;;;;14.60;6.75;;;;;;;6.62;100.00;98715.63;5092643;28;20040;-74
2022/02/07 06:12:56;;;;;;;10.77;5.93;;;;;;;6.56;100.00;98709.81;5093096;28;20040;-74
2022/02/07 06:15:25;;;;;;;12.23;5.80;;;;;;;6.56;100.00;98709.81;5092769;28;20449;-75
2022/02/07 06:17:57;;;;;;;11.43;5.40;;;;;;;6.54;100.00;98708.19;5092937;28;20568;-75
2022/02/07 06:20:25;;;;;;;9.70;4.35;;;;;;;6.50;100.00;98706.72;5093762;28;20445;-76
2022/02/07 06:22:54;;;;;;;12.25;6.30;;;;;;;6.44;100.00;98707.13;5097073;28;20127;-79
2022/02/07 06:25:23;;;;;;;10.10;4.80;;;;;;;6.49;100.00;98712.97;5096990;28;20536;-79
2022/02/07 06:27:52;;;;;;;12.73;6.38;;;;;;;6.47;100.00;98722.84;5097165;28;20044;-76
2022/02/07 06:30:20;;;;;;;10.65;5.47;;;;;;;6.46;100.00;98732.56;5096897;28;20550;-76
2022/02/07 06:32:48;;;;;;;9.57;3.85;;;;;;;6.44;100.00;98738.91;5096783;28;20540;-76
2022/02/07 06:35:17;;;;;;;10.55;5.10;;;;;;;6.40;100.00;98740.09;5097019;28;20047;-77
2022/02/07 06:37:46;;;;;;;9.32;4.97;;;;;;;6.42;100.00;98740.81;5096689;28;20044;-76
2022/02/07 06:40:14;;;;;;;9.90;5.90;;;;;;;6.41;100.00;98749.72;5096516;28;20052;-74
2022/02/07 06:42:44;;;;;;;10.55;5.78;;;;;;;6.40;100.00;98740.09;5096558;28;20040;-76
2022/02/07 06:45:12;;;;;;;9.80;4.75;;;;;;;6.38;100.00;98739.34;5096840;28;20063;-75
2022/02/07 06:47:42;;;;;;;8.98;4.72;;;;;;;6.40;100.00;98750.66;5096292;28;20044;-75
2022/02/07 06:50:10;;;;;;;11.05;5.47;;;;;;;6.36;100.00;98749.16;5096322;28;20043;-74
2022/02/07 06:52:39;;;;;;;10.93;4.60;;;;;;;6.40;100.00;98742.72;5106281;28;20040;-74
2022/02/07 06:55:08;;;;;;;8.40;4.63;;;;;;;6.36;100.00;98752.66;5114614;28;20072;-73
2022/02/07 06:57:39;;;;;;;6.78;3.70;;;;;;;6.39;100.00;98751.63;5096900;28;20130;-73
2022/02/07 07:00:11;;;;;;;8.48;4.07;;;;;;;6.40;100.00;98759.47;5114958;28;20079;-76
2022/02/07 07:02:41;;;;;;;8.50;4.32;;;;;;;6.37;100.00;98750.84;5115793;28;20500;-77
2022/02/07 07:05:13;;;;;;;6.53;3.53;;;;;;;6.41;100.00;98757.66;5116145;28;20036;-79
2022/02/07 07:07:42;;;;;;;6.60;3.42;;;;;;;6.40;100.00;98763.91;5116503;28;20044;-79
2022/02/07 07:10:11;;;;;;;5.32;3.28;;;;;;;6.39;100.00;98764.88;5116215;28;20104;-77
2022/02/07 07:12:42;;;;;;;5.40;2.72;;;;;;;6.46;100.00;98764.34;5115863;28;20104;-73
2022/02/07 07:15:16;;;;;;;;;;;;;;;6.47;100.00;98789.06;5116785;28;20097;-74
2022/02/07 07:17:44;;;;;;;4.13;1.90;;;;;;;6.57;100.00;98776.88;5116255;28;19920;-76
2022/02/07 07:20:12;;;;;;;5.18;2.20;;;;;;;6.60;100.00;98795.22;5097927;28;20079;-74
2022/02/07 07:22:41;;;;;;;4.55;2.40;;;;;;;6.65;100.00;98794.91;5116054;28;20058;-79
2022/02/07 07:25:15;;;;;;;4.43;2.30;;;;;;;6.70;100.00;98811.34;5117145;28;20047;-72
2022/02/07 07:27:57;;;;;;;2.75;1.45;;;;;;;6.62;100.00;98806.56;5115831;28;20476;-72
2022/02/07 07:30:30;;;;;;;2.85;1.50;;;;;;;6.62;100.00;98814.50;5119869;28;20078;-72
2022/02/07 07:33:03;;;;;;;3.60;1.45;;;;;;;6.54;100.00;98817.66;5115468;28;20127;-73
2022/02/07 07:35:31;;;;;;;3.60;2.10;;;;;;;6.41;100.00;98831.81;5115146;28;20069;-78
2022/02/07 07:37:59;;;;;;;2.35;1.50;;;;;;;6.25;100.00;98885.78;5115732;28;20058;-77
2022/02/07 07:40:28;;;;;;;2.63;1.67;;;;;;;5.88;100.00;98859.91;5115480;28;20063;-76
2022/02/07 07:42:56;;;;;;;3.15;1.70;;;;;;;5.79;100.00;98877.22;5115232;28;20044;-76
2022/02/07 07:45:31;;;;;;;3.85;1.70;;;;;;;5.78;100.00;98872.00;5115149;28;20065;-76
2022/02/07 07:48:03;;;;;;;3.60;1.45;;;;;;;5.67;100.00;98875.31;5115630;28;20039;-76
2022/02/07 07:50:39;;;;;;;2.53;1.45;;;;;;;5.61;100.00;98865.16;5115095;28;20126;-73
2022/02/07 07:53:20;;;;;;;2.85;1.38;;;;;;;5.64;100.00;98871.09;5114814;28;20039;-79
2022/02/07 08:04:05;;;;;;;2.58;1.20;;;;;;;5.52;100.00;98898.28;5104288;28;20109;-72
2022/02/07 08:06:40;;;;;;;2.40;1.40;;;;;;;5.40;100.00;98915.75;5114902;28;20040;-74
2022/02/07 08:09:41;;;;;;;2.72;1.60;;;;;;;5.41;100.00;98900.75;5114976;28;20047;-73
2022/02/07 08:12:14;;;;;;;3.00;1.60;;;;;;;5.38;100.00;98924.72;5114878;28;20066;-74
2022/02/07 08:14:48;;;;;;;3.50;1.40;;;;;;;5.39;100.00;98895.53;5115079;28;20280;-74
2022/02/07 08:17:30;;;;;;;1.55;0.93;;;;;;;5.31;100.00;98910.19;5114722;28;20043;-74
2022/02/07 08:20:01;;;;;;;2.67;1.50;;;;;;;5.32;100.00;98902.16;5114609;28;20373;-74
2022/02/07 08:22:30;;;;;;;2.70;1.02;;;;;;;5.34;100.00;98917.91;5113806;28;20040;-77
2022/02/07 08:25:02;;;;;;;2.10;1.20;;;;;;;5.29;100.00;98901.47;5115941;28;20039;-78
2022/02/07 08:27:32;;;;;;;1.63;1.15;;;;;;;5.22;100.00;98900.16;5115106;28;20044;-77
2022/02/07 08:30:00;;;;;;;2.40;1.10;;;;;;;5.13;100.00;98914.75;5115523;28;20039;-78
2022/02/07 08:32:30;;;;;;;3.38;1.10;;;;;;;5.12;100.00;98911.28;5114215;28;20040;-76
2022/02/07 08:35:01;;;;;;;1.92;0.90;;;;;;;5.08;100.00;98908.88;5114651;28;20040;-76
2022/02/07 08:37:30;;;;;;;2.58;1.10;;;;;;;5.22;100.00;98905.44;5114738;28;20039;-76
2022/02/07 08:39:58;;;;;;;1.33;0.73;;;;;;;5.18;100.00;98910.88;5114138;28;20035;-75
2022/02/07 08:42:27;;;;;;;0.82;0.57;;;;;;;5.16;100.00;98920.72;5113973;28;20044;-75
2022/02/07 08:44:55;;;;;;;1.40;0.63;;;;;;;5.21;100.00;98924.84;5114223;28;20047;-76
2022/02/07 08:47:24;;;;;;;1.90;0.73;;;;;;;5.27;100.00;98929.78;5114008;28;20134;-73
2022/02/07 08:49:54;;;;;;;0.88;0.60;;;;;;;5.29;100.00;98922.63;5113951;28;20128;-75
2022/02/07 08:52:22;;;;;;;0.22;0.22;;;;;;;5.11;100.00;98941.25;5113324;28;20051;-83
2022/02/07 08:54:51;;;;;;;1.85;0.80;;;;;;;5.20;100.00;98944.31;5113652;28;20139;-77
2022/02/07 08:57:26;;;;;;;0.98;0.55;;;;;;;5.13;100.00;98971.13;5113687;28;20112;-74
2022/02/07 09:00:12;;;;;;;1.02;0.63;;;;;;;5.31;100.00;98968.34;5114109;28;20392;-78
2022/02/07 09:05:49;;;;;;;0.52;0.50;;;;;;;5.45;100.00;98984.22;5030641;28;20045;-78
2022/02/07 09:08:39;;;;;;;2.38;0.90;;;;;;;5.55;100.00;98988.03;5100960;28;20453;-79
2022/02/07 09:11:07;;;;;;;1.73;0.90;;;;;;;5.57;100.00;99006.44;5113570;28;20066;-78
2022/02/07 09:13:39;;;;;;;0.82;0.50;;;;;;;5.53;100.00;99013.72;5095455;28;20052;-78
2022/02/07 09:16:23;;;;;;;1.85;1.00;;;;;;;5.53;100.00;99011.09;5113856;28;20048;-77
2022/02/07 09:18:51;;;;;;;1.05;0.68;;;;;;;5.54;100.00;99046.31;5113837;28;20046;-75
2022/02/07 09:21:21;;;;;;;2.22;0.50;;;;;;;5.60;100.00;99048.63;5113039;28;20040;-74
2022/02/07 09:23:49;;;;;;;1.50;0.52;;;;;;;5.66;100.00;99048.22;5113486;28;20067;-76
2022/02/07 09:26:17;;;;;;;2.65;0.80;;;;;;;5.63;100.00;99043.97;5113521;28;20046;-74
2022/02/07 09:28:46;;;;;;;2.15;0.50;;;;;;;5.66;100.00;99064.97;5113304;28;20506;-78
2022/02/07 09:31:18;;;;;;;1.30;0.77;;;;;;;5.83;100.00;99077.19;5113549;28;20059;-74
2022/02/07 09:33:47;;;;;;;3.75;0.93;;;;;;;5.95;100.00;99073.00;5113158;28;20047;-74
2022/02/07 09:36:16;;;;;;;0.95;0.70;;;;;;;6.06;100.00;99077.63;5113540;28;20088;-76
2022/02/07 09:38:46;;;;;;;0.60;0.50;;;;;;;5.81;100.00;99068.50;5094474;28;20154;-76
2022/02/07 09:41:17;;;;;;;0.68;0.40;;;;;;;5.74;100.00;99094.47;5113120;28;20048;-77
2022/02/07 09:43:48;;;;;;;1.98;0.50;;;;;;;5.77;100.00;99104.00;5113054;28;20032;-77
2022/02/07 09:46:22;;;;;;;1.05;0.57;;;;;;;5.75;100.00;99100.59;5113697;28;20400;-74
2022/02/07 09:48:54;;;;;;;0.82;0.40;;;;;;;5.90;100.00;99125.34;5113038;28;20051;-73
2022/02/07 09:51:22;;;;;;;4.28;0.80;;;;;;;6.15;100.00;99101.75;5094697;28;20099;-75
2022/02/07 09:53:53;;;;;;;1.33;0.52;;;;;;;6.07;100.00;99093.44;5112763;28;20585;-71
2022/02/07 09:56:22;;;;;;;3.40;0.57;;;;;;;6.03;100.00;99102.50;5115328;28;20118;-75
2022/02/07 09:58:53;;;;;;;1.17;0.43;;;;;;;6.09;100.00;99115.41;5113083;28;20050;-76
2022/02/07 10:01:27;;;;;;;1.70;0.52;;;;;;;6.15;100.00;99124.75;5112898;28;20040;-72
2022/02/07 10:04:02;;;;;;;1.58;0.90;;;;;;;6.25;100.00;99105.56;5112724;28;20043;-76
2022/02/07 10:06:40;;;;;;;1.73;0.85;;;;;;;6.10;100.00;99138.28;5112831;28;20114;-73
2022/02/07 10:09:39;;;;;;;3.53;0.90;;;;;;;6.11;100.00;99150.56;5113057;28;20043;-71
2022/02/07 10:12:26;;;;;;;2.25;0.90;;;;;;;6.05;100.00;99165.94;5113009;28;20418;-78
2022/02/07 10:15:11;;;;;;;5.78;1.25;;;;;;;6.15;100.00;99172.41;5094420;28;20047;-74
2022/02/07 10:17:50;;;;;;;2.20;1.08;;;;;;;6.18;99.89;99166.94;5112605;28;20036;-73
2022/02/07 10:20:54;;;;;;;2.33;0.93;;;;;;;6.02;100.00;99164.34;5112225;28;20074;-72
2022/02/07 10:34:43;;;;;;;6.78;0.95;;;;;;;6.12;100.00;99189.34;5112665;28;20043;-74
2022/02/07 10:40:18;;;;;;;3.97;1.30;;;;;;;6.12;100.00;99221.09;5112481;28;20039;-74
2022/02/07 10:43:16;;;;;;;2.20;1.05;;;;;;;6.06;100.00;99204.72;5112051;28;20040;-73
2022/02/07 10:46:05;;;;;;;3.58;0.90;;;;;;;6.20;100.00;99224.16;5112390;28;20040;-78
2022/02/07 10:48:40;;;;;;;3.85;1.00;;;;;;;6.19;100.00;99221.59;5112279;28;20043;-77
2022/02/07 10:51:11;;;;;;;3.28;1.30;;;;;;;6.03;100.00;99205.75;5111521;28;20551;-82
2022/02/07 10:53:41;;;;;;;2.08;0.90;;;;;;;6.21;100.00;99223.22;5102644;28;20089;-77
2022/02/07 10:56:10;;;;;;;1.00;0.80;;;;;;;5.96;100.00;99222.91;5071535;28;20050;-77
2022/02/07 10:58:40;;;;;;;3.22;1.08;;;;;;;6.04;100.00;99202.16;5071640;28;20055;-72
2022/02/07 11:01:14;;;;;;;5.88;1.20;;;;;;;6.16;100.00;99190.00;5071215;28;20106;-72
2022/02/07 11:03:47;;;;;;;2.97;1.05;;;;;;;6.25;100.00;99190.31;5071268;28;20375;-75
2022/02/07 11:06:22;;;;;;;2.65;0.88;;;;;;;6.19;99.90;99190.69;5072775;28;20493;-75
2022/02/07 11:09:09;;;;;;;1.75;0.90;;;;;;;5.89;99.15;99180.06;5075438;28;20044;-73
2022/02/07 11:17:33;;;;;;;6.22;1.38;;;;;;;6.03;98.33;99184.56;5075480;28;20054;-76
2022/02/07 11:20:27;;;;;;;2.38;0.82;;;;;;;6.01;99.24;99181.16;5075225;28;20395;-76
2022/02/07 11:23:10;;;;;;;2.53;1.00;;;;;;;6.14;98.95;99215.72;5074689;28;20052;-77
2022/02/07 11:25:50;;;;;;;3.17;1.27;;;;;;;6.14;98.79;99218.34;5075203;28;20044;-76
2022/02/07 11:28:25;;;;;;;2.75;1.17;;;;;;;6.07;100.00;99209.91;5074934;28;20067;-76
2022/02/07 11:30:57;;;;;;;2.20;1.30;;;;;;;6.00;100.00;99243.00;5075127;28;20089;-77
2022/02/07 11:33:34;;;;;;;1.95;1.20;;;;;;;6.19;100.00;99259.53;5074980;28;20041;-78
2022/02/07 11:36:04;;;;;;;2.45;0.93;;;;;;;6.11;100.00;99252.97;5075292;28;20044;-76
2022/02/07 11:38:32;;;;;;;1.60;0.77;;;;;;;5.69;99.18;99243.81;5074872;28;20045;-76
2022/02/07 11:41:04;;;;;;;0.50;0.50;;;;;;;5.50;97.59;99259.91;5074616;28;20469;-71
2022/02/07 11:43:33;;;;;;;4.22;0.88;;;;;;;5.58;98.40;99265.59;5075564;28;20058;-70
2022/02/07 11:46:05;;;;;;;2.85;0.80;;;;;;;5.75;98.70;99265.50;5074905;28;20048;-73
2022/02/07 11:48:37;;;;;;;3.90;1.02;;;;;;;6.01;97.88;99255.28;5075065;28;20036;-73
2022/02/07 11:51:13;;;;;;;1.40;0.68;;;;;;;6.06;94.01;99274.41;5075237;28;20041;-73
2022/02/07 11:53:46;;;;;;;2.65;1.00;;;;;;;6.18;94.43;99288.75;5075263;28;20478;-74
2022/02/07 11:56:23;;;;;;;2.03;0.65;;;;;;;6.19;92.31;99295.75;5093141;28;20063;-73
2022/02/07 11:59:17;;;;;;;1.77;0.80;;;;;;;6.18;91.69;99336.41;5095206;28;20040;-74
2022/02/07 12:02:02;;;;;;;1.25;0.68;;;;;;;6.04;91.14;99300.09;5095277;28;20064;-73
2022/02/07 12:04:38;;;;;;;0.75;0.60;;;;;;;6.16;92.21;99307.34;5095208;28;20068;-72
2022/02/07 12:07:19;;;;;;;2.35;0.75;;;;;;;6.15;91.88;99313.59;5095334;28;20048;-73
2022/02/07 12:10:26;;;;;;;0.68;0.38;;;;;;;6.08;90.79;99319.31;5094878;28;20051;-73
2022/02/07 12:13:01;;;;;;;1.52;0.70;;;;;;;6.15;87.06;99313.59;5095244;28;20047;-73
2022/02/07 12:15:35;;;;;;;1.95;0.60;;;;;;;6.37;84.31;99330.88;5095413;28;20040;-73
2022/02/07 12:18:21;;;;;;;3.97;0.90;;;;;;;6.39;80.96;99329.88;5094010;28;20470;-73
2022/02/07 12:20:51;;;;;;;2.55;0.70;;;;;;;6.36;79.83;99351.22;5094551;28;20040;-74
2022/02/07 12:23:20;;;;;;;1.08;0.52;;;;;;;6.37;71.11;99346.78;5095059;28;20052;-72
2022/02/07 12:25:55;;;;;;;4.18;0.77;;;;;;;6.53;70.95;99353.78;5094897;28;20044;-74
2022/02/07 12:28:33;;;;;;;1.98;0.70;;;;;;;6.42;70.14;99376.53;5094950;28;20064;-73
2022/02/07 12:31:10;;;;;;;0.88;0.50;;;;;;;6.40;70.55;99373.97;5094763;28;20130;-73
2022/02/07 12:33:41;;;;;;;4.65;1.00;;;;;;;6.51;69.69;99429.00;5094630;28;20043;-80
2022/02/07 12:36:10;;;;;;;2.05;0.73;;;;;;;6.42;70.00;99384.47;5095045;28;20036;-73
2022/02/07 12:38:40;;;;;;;2.20;0.60;;;;;;;6.42;70.16;99387.13;5094795;28;20048;-73
2022/02/07 12:41:11;;;;;;;0.95;0.40;;;;;;;6.39;70.60;99409.34;5094586;28;20067;-73
2022/02/07 12:43:41;;;;;;;1.90;0.80;;;;;;;6.44;71.36;99393.19;5094353;28;20067;-79
2022/02/07 12:46:15;;;;;;;3.28;1.42;;;;;;;6.43;71.99;99405.56;5095011;28;20048;-72
2022/02/07 12:48:51;;;;;;;4.38;0.90;;;;;;;6.51;72.19;99406.00;5094507;28;20097;-73
2022/02/07 12:51:21;;;;;;;2.75;1.00;;;;;;;6.54;71.37;99426.16;5094663;28;20473;-73
2022/02/07 12:53:52;;;;;;;2.10;0.90;;;;;;;6.37;71.84;99428.91;5094302;28;20046;-73
2022/02/07 12:56:22;;;;;;;0.70;0.52;;;;;;;6.28;71.76;99427.66;5114813;28;20051;-73
2022/02/07 12:58:52;;;;;;;6.40;1.10;;;;;;;6.40;71.66;99453.44;5114642;28;20042;-74
2022/02/07 13:01:23;;;;;;;3.85;1.05;;;;;;;6.26;73.20;99451.53;5114501;28;20039;-73
2022/02/07 13:03:55;;;;;;;5.47;0.80;;;;;;;6.43;74.32;99421.47;5114474;28;20039;-74
2022/02/07 13:06:29;;;;;;;1.77;0.70;;;;;;;6.44;73.16;99454.09;5114739;28;20042;-73
2022/02/07 13:09:21;;;;;;;2.97;0.77;;;;;;;6.42;74.48;99466.59;5114677;28;20046;-73
2022/02/07 13:12:01;;;;;;;2.97;1.10;;;;;;;6.34;74.58;99467.00;5114356;28;20043;-73
2022/02/07 13:14:31;;;;;;;2.20;0.90;;;;;;;6.39;75.37;99486.16;5114339;28;20040;-73
2022/02/07 13:16:59;;;;;;;2.03;0.75;;;;;;;6.46;75.12;99491.97;5114251;28;20093;-73
2022/02/07 13:19:36;;;;;;;2.45;1.10;;;;;;;6.71;75.60;99489.66;5113943;28;20055;-74
2022/02/07 13:22:05;;;;;;;3.42;1.17;;;;;;;6.69;74.72;99485.41;5114026;28;20553;-74
2022/02/07 13:24:36;;;;;;;3.38;1.27;;;;;;;6.78;72.64;99499.00;5114050;28;20435;-73
2022/02/07 13:27:08;;;;;;;2.63;0.93;;;;;;;6.77;71.28;99514.97;5113851;28;20454;-74
2022/02/07 13:29:42;;;;;;;2.20;0.77;;;;;;;6.45;70.19;99512.31;5113675;28;20032;-73